Map

Track Data

SID SEASON NUMBER BASIN SUBBASIN NAME ISO_TIME NATURE LAT LON WMO_WIND WMO_PRES WMO_AGENCY TRACK_TYPE DIST2LAND LANDFALL IFLAG USA_AGENCY USA_ATCF_ID USA_LAT USA_LON USA_RECORD USA_STATUS USA_WIND USA_PRES USA_SSHS USA_R34_NE USA_R34_SE USA_R34_SW USA_R34_NW USA_R50_NE USA_R50_SE USA_R50_SW USA_R50_NW USA_R64_NE USA_R64_SE USA_R64_SW USA_R64_NW USA_POCI USA_ROCI USA_RMW USA_EYE TOKYO_LAT TOKYO_LON TOKYO_GRADE TOKYO_WIND TOKYO_PRES TOKYO_R50_DIR TOKYO_R50_LONG TOKYO_R50_SHORT TOKYO_R30_DIR TOKYO_R30_LONG TOKYO_R30_SHORT TOKYO_LAND CMA_LAT CMA_LON CMA_CAT CMA_WIND CMA_PRES HKO_LAT HKO_LON HKO_CAT HKO_WIND HKO_PRES NEWDELHI_LAT NEWDELHI_LON NEWDELHI_GRADE NEWDELHI_WIND NEWDELHI_PRES NEWDELHI_CI NEWDELHI_DP NEWDELHI_POCI REUNION_LAT REUNION_LON REUNION_TYPE REUNION_WIND REUNION_PRES REUNION_TNUM REUNION_CI REUNION_RMW REUNION_R34_NE REUNION_R34_SE REUNION_R34_SW REUNION_R34_NW REUNION_R50_NE REUNION_R50_SE REUNION_R50_SW REUNION_R50_NW REUNION_R64_NE REUNION_R64_SE REUNION_R64_SW REUNION_R64_NW BOM_LAT BOM_LON BOM_TYPE BOM_WIND BOM_PRES BOM_TNUM BOM_CI BOM_RMW BOM_R34_NE BOM_R34_SE BOM_R34_SW BOM_R34_NW BOM_R50_NE BOM_R50_SE BOM_R50_SW BOM_R50_NW BOM_R64_NE BOM_R64_SE BOM_R64_SW BOM_R64_NW BOM_ROCI BOM_POCI BOM_EYE BOM_POS_METHOD BOM_PRES_METHOD NADI_LAT NADI_LON NADI_CAT NADI_WIND NADI_PRES WELLINGTON_LAT WELLINGTON_LON WELLINGTON_WIND WELLINGTON_PRES DS824_LAT DS824_LON DS824_STAGE DS824_WIND DS824_PRES TD9636_LAT TD9636_LON TD9636_STAGE TD9636_WIND TD9636_PRES TD9635_LAT TD9635_LON TD9635_WIND TD9635_PRES TD9635_ROCI NEUMANN_LAT NEUMANN_LON NEUMANN_CLASS NEUMANN_WIND NEUMANN_PRES MLC_LAT MLC_LON MLC_CLASS MLC_WIND MLC_PRES USA_GUST BOM_GUST BOM_GUST_PER REUNION_GUST REUNION_GUST_PER USA_SEAHGT USA_SEARAD_NE USA_SEARAD_SE USA_SEARAD_SW USA_SEARAD_NW STORM_SPEED STORM_DIR
1938338N11140 1938 69 WP MM NOT_NAMED 1938-12-04 10:00:00 NR 11.3000 140.400 main 1444 1429 __________O___ -1 11.3000 140.400 7 11 275
1938338N11140 1938 69 WP MM NOT_NAMED 1938-12-04 12:00:00 NR 11.3329 140.026 main 1429 1422 __________P___ -1 11.3329 140.026 7 11 275
1938338N11140 1938 69 WP MM NOT_NAMED 1938-12-04 15:00:00 NR 11.3820 139.467 main 1422 1404 __________P___ -1 11.3820 139.467 7 11 275
1938338N11140 1938 69 WP MM NOT_NAMED 1938-12-04 18:00:00 NR 11.4316 138.916 main 1404 1359 __________P___ -1 11.4316 138.916 7 11 275
1938338N11140 1938 69 WP MM NOT_NAMED 1938-12-04 21:00:00 NR 11.4825 138.376 main 1359 1337 __________P___ -1 11.4825 138.376 7 11 276
1938338N11140 1938 69 WP MM NOT_NAMED 1938-12-04 22:00:00 NR 11.5000 138.200 main 1337 1305 __________O___ -1 11.5000 138.200 7 10 276
1938338N11140 1938 69 WP MM NOT_NAMED 1938-12-05 00:00:00 NR 11.5357 137.853 main 1305 1244 __________P___ -1 11.5357 137.853 7 10 276
1938338N11140 1938 69 WP MM NOT_NAMED 1938-12-05 03:00:00 NR 11.5895 137.344 main 1244 1190 __________P___ -1 11.5895 137.344 7 10 276
1938338N11140 1938 69 WP MM NOT_NAMED 1938-12-05 06:00:00 NR 11.6409 136.848 main 1190 1150 __________P___ -1 11.6409 136.848 7 10 276
1938338N11140 1938 69 WP MM NOT_NAMED 1938-12-05 09:00:00 NR 11.6866 136.361 main 1150 1129 __________P___ -1 11.6866 136.361 7 10 275
1938338N11140 1938 69 WP MM NOT_NAMED 1938-12-05 10:00:00 NR 11.7000 136.200 main 1129 1097 __________O___ -1 11.7000 136.200 7 10 274
1938338N11140 1938 69 WP MM NOT_NAMED 1938-12-05 12:00:00 NR 11.7250 135.854 main 1097 1037 __________P___ -1 11.7250 135.854 7 10 274
1938338N11140 1938 69 WP MM NOT_NAMED 1938-12-05 15:00:00 NR 11.7564 135.341 main 1037 995 __________P___ -1 11.7564 135.341 7 10 273
1938338N11140 1938 69 WP MM NOT_NAMED 1938-12-05 18:00:00 NR 11.7802 134.857 main 995 942 __________P___ -1 11.7802 134.857 7 9 273
1938338N11140 1938 69 WP MM NOT_NAMED 1938-12-05 21:00:00 NR 11.7963 134.427 main 942 931 __________P___ -1 11.7963 134.427 7 8 272
1938338N11140 1938 69 WP MM NOT_NAMED 1938-12-05 22:00:00 NR 11.8000 134.300 main 931 909 __________O___ -1 11.8000 134.300 7 7 272
1938338N11140 1938 69 WP MM NOT_NAMED 1938-12-06 00:00:00 NR 11.8053 134.087 main 909 877 __________P___ -1 11.8053 134.087 7 6 271
1938338N11140 1938 69 WP MM NOT_NAMED 1938-12-06 03:00:00 NR 11.8073 133.825 main 877 855 __________P___ -1 11.8073 133.825 7 5 270
1938338N11140 1938 69 WP MM NOT_NAMED 1938-12-06 06:00:00 NR 11.8049 133.600 main 855 833 __________P___ -1 11.8049 133.600 7 4 269
1938338N11140 1938 69 WP MM NOT_NAMED 1938-12-06 09:00:00 NR 11.8011 133.379 main 833 822 __________P___ -1 11.8011 133.379 7 4 269
1938338N11140 1938 69 WP MM NOT_NAMED 1938-12-06 10:00:00 NR 11.8000 133.300 main 822 801 __________O___ -1 11.8000 133.300 7 5 269
1938338N11140 1938 69 WP MM NOT_NAMED 1938-12-06 12:00:00 NR 11.7972 133.127 main 801 779 __________P___ -1 11.7972 133.127 7 5 269
1938338N11140 1938 69 WP MM NOT_NAMED 1938-12-06 15:00:00 NR 11.7930 132.856 main 779 747 __________P___ -1 11.7930 132.856 7 6 269
1938338N11140 1938 69 WP MM NOT_NAMED 1938-12-06 18:00:00 NR 11.7917 132.558 main 747 703 __________P___ -1 11.7917 132.558 7 6 270
1938338N11140 1938 69 WP MM NOT_NAMED 1938-12-06 21:00:00 NR 11.7965 132.223 main 703 693 __________P___ -1 11.7965 132.223 7 7 271
1938338N11140 1938 69 WP MM NOT_NAMED 1938-12-06 22:00:00 NR 11.8000 132.100 main 693 660 __________O___ -1 11.8000 132.100 2 7 273
1938338N11140 1938 69 WP MM NOT_NAMED 1938-12-07 00:00:00 NR 11.8161 131.845 main 660 617 __________P___ -1 11.8161 131.845 2 8 274
1938338N11140 1938 69 WP MM NOT_NAMED 1938-12-07 03:00:00 NR 11.8467 131.424 main 617 575 __________P___ -1 11.8467 131.424 2 9 274
1938338N11140 1938 69 WP MM NOT_NAMED 1938-12-07 06:00:00 NR 11.8768 130.964 main 575 522 __________P___ -1 11.8768 130.964 2 9 273
1938338N11140 1938 69 WP MM NOT_NAMED 1938-12-07 09:00:00 NR 11.8970 130.471 main 522 501 __________P___ -1 11.8970 130.471 2 10 272
1938338N11140 1938 69 WP MM NOT_NAMED 1938-12-07 10:00:00 NR 11.9000 130.300 main 501 469 __________O___ -1 11.9000 130.300 2 10 269
1938338N11140 1938 69 WP MM NOT_NAMED 1938-12-07 12:00:00 NR 11.8919 129.967 main 469 405 __________P___ -1 11.8919 129.967 2 10 268
1938338N11140 1938 69 WP MM NOT_NAMED 1938-12-07 15:00:00 NR 11.8672 129.441 main 405 349 __________P___ -1 11.8672 129.441 2 11 267
1938338N11140 1938 69 WP MM NOT_NAMED 1938-12-07 18:00:00 NR 11.8358 128.886 main 349 287 __________P___ -1 11.8358 128.886 2 11 267
1938338N11140 1938 69 WP MM NOT_NAMED 1938-12-07 21:00:00 NR 11.8073 128.302 main 287 266 __________P___ -1 11.8073 128.302 2 12 267
1938338N11140 1938 69 WP MM NOT_NAMED 1938-12-07 22:00:00 NR 11.8000 128.100 main 266 225 __________O___ -1 11.8000 128.100 2 12 268
1938338N11140 1938 69 WP MM NOT_NAMED 1938-12-08 00:00:00 NR 11.7838 127.684 main 225 158 __________P___ -1 11.7838 127.684 2 13 268
1938338N11140 1938 69 WP MM NOT_NAMED 1938-12-08 03:00:00 NR 11.7656 127.035 main 158 98 __________P___ -1 11.7656 127.035 2 13 269
1938338N11140 1938 69 WP MM NOT_NAMED 1938-12-08 06:00:00 NR 11.7629 126.372 main 98 24 __________P___ -1 11.7629 126.372 2 13 271
1938338N11140 1938 69 WP MM NOT_NAMED 1938-12-08 09:00:00 NR 11.7853 125.715 main 24 10 __________P___ -1 11.7853 125.715 2 13 272
1938338N11140 1938 69 WP MM NOT_NAMED 1938-12-08 10:00:00 NR 11.8000 125.500 main 10 0 __________O___ -1 11.8000 125.500 2 12 275
1938338N11140 1938 69 WP MM NOT_NAMED 1938-12-08 12:00:00 NR 11.8434 125.091 main 0 0 __________P___ -1 11.8434 125.091 2 12 278
1938338N11140 1938 69 WP MM NOT_NAMED 1938-12-08 15:00:00 NR 11.9340 124.491 main 24 0 __________P___ -1 11.9340 124.491 2 12 280
1938338N11140 1938 69 WP MM NOT_NAMED 1938-12-08 18:00:00 NR 12.0442 123.897 main 0 0 __________P___ -1 12.0442 123.897 2 12 281
1938338N11140 1938 69 WP MM NOT_NAMED 1938-12-08 21:00:00 NR 12.1615 123.301 main 0 0 __________P___ -1 12.1615 123.301 2 12 281
1938338N11140 1938 69 WP MM NOT_NAMED 1938-12-08 22:00:00 NR 12.2000 123.100 main 10 10 __________O___ -1 12.2000 123.100 2 12 279
1938338N11140 1938 69 WP MM NOT_NAMED 1938-12-09 00:00:00 NR 12.2585 122.689 main 55 55 __________P___ -1 12.2585 122.689 2 12 278
1938338N11140 1938 69 WP MM NOT_NAMED 1938-12-09 03:00:00 NR 12.3464 122.066 main 55 0 __________P___ -1 12.3464 122.066 2 12 279
1938338N11140 1938 69 WP MM NOT_NAMED 1938-12-09 06:00:00 NR 12.4425 121.438 main 0 0 __________P___ -1 12.4425 121.438 2 12 280
1938338N11140 1938 69 WP MM NOT_NAMED 1938-12-09 09:00:00 NR 12.5565 120.809 main 10 10 __________P___ -1 12.5565 120.809 2 13 281
1938338N11140 1938 69 WP MM NOT_NAMED 1938-12-09 10:00:00 NR 12.6000 120.600 main 24 24 __________O___ -1 12.6000 120.600 2 12 285
1938338N11140 1938 69 WP MM NOT_NAMED 1938-12-09 12:00:00 NR 12.7064 120.220 main 64 62 __________P___ -1 12.7064 120.220 2 12 287
1938338N11140 1938 69 WP MM NOT_NAMED 1938-12-09 15:00:00 NR 12.8854 119.651 main 85 94 __________P___ -1 12.8854 119.651 2 12 288
1938338N11140 1938 69 WP MM NOT_NAMED 1938-12-09 18:00:00 NR 13.0718 119.044 main 144 144 __________P___ -1 13.0718 119.044 2 13 286
1938338N11140 1938 69 WP MM NOT_NAMED 1938-12-09 21:00:00 NR 13.2472 118.355 main 206 216 __________P___ -1 13.2472 118.355 2 14 284
1938338N11140 1938 69 WP MM NOT_NAMED 1938-12-09 22:00:00 NR 13.3000 118.100 main 238 238 __________O___ -1 13.3000 118.100 2 16 280
1938338N11140 1938 69 WP MM NOT_NAMED 1938-12-10 00:00:00 NR 13.3809 117.550 main 292 303 __________P___ -1 13.3809 117.550 2 17 277
1938338N11140 1938 69 WP MM NOT_NAMED 1938-12-10 03:00:00 NR 13.4832 116.638 main 398 398 __________P___ -1 13.4832 116.638 2 19 276
1938338N11140 1938 69 WP MM NOT_NAMED 1938-12-10 06:00:00 NR 13.5740 115.638 main 492 492 __________P___ -1 13.5740 115.638 2 20 275
1938338N11140 1938 69 WP MM NOT_NAMED 1938-12-10 09:00:00 NR 13.6665 114.569 main 559 527 __________P___ -1 13.6665 114.569 2 21 275
1938338N11140 1938 69 WP MM NOT_NAMED 1938-12-10 10:00:00 NR 13.7000 114.200 main 516 434 __________O___ -1 13.7000 114.200 2 22 276
1938338N11140 1938 69 WP MM NOT_NAMED 1938-12-10 12:00:00 NR 13.7730 113.448 main 434 323 __________P___ -1 13.7730 113.448 2 22 276
1938338N11140 1938 69 WP MM NOT_NAMED 1938-12-10 15:00:00 NR 13.8944 112.290 main 323 194 __________P___ -1 13.8944 112.290 2 23 276
1938338N11140 1938 69 WP MM NOT_NAMED 1938-12-10 18:00:00 NR 14.0244 111.104 main 194 72 __________P___ -1 14.0244 111.104 2 23 276
1938338N11140 1938 69 WP MM NOT_NAMED 1938-12-10 21:00:00 NR 14.1566 109.902 main 72 44 __________P___ -1 14.1566 109.902 2 24 276
1938338N11140 1938 69 WP MM NOT_NAMED 1938-12-10 22:00:00 NR 14.2000 109.500 main 34 __________O___ -1 14.2000 109.500 2 24 276

Digital Typhoon Data and Search

About IBTrACS Database

This database is a web-friendly format of International Best Track Archive for Climate Stewardship (IBTrACS), a global best track data archive curated by NOAA dating back to 1842.

Updated: 2021-10-08